sensor_id;sensor_type;location;lat;lon;timestamp;pressure;altitude;pressure_sealevel;temperature;humidity
50696;BME280;36665;51.786;21.594;2022-11-21T00:05:19;90233.21;;;-2.51;77.58
50696;BME280;36665;51.786;21.594;2022-11-21T00:13:41;90251.69;;;-2.46;77.58
50696;BME280;36665;51.786;21.594;2022-11-21T00:22:03;90253.17;;;-2.47;77.79
50696;BME280;36665;51.786;21.594;2022-11-21T00:30:24;90273.85;;;-2.41;77.74
50696;BME280;36665;51.786;21.594;2022-11-21T00:38:46;90299.69;;;-2.32;77.71
50696;BME280;36665;51.786;21.594;2022-11-21T00:47:08;90316.04;;;-2.28;77.86
50696;BME280;36665;51.786;21.594;2022-11-21T00:55:29;90313.88;;;-2.29;77.92
50696;BME280;36665;51.786;21.594;2022-11-21T01:03:51;90329.67;;;-2.24;78.04
50696;BME280;36665;51.786;21.594;2022-11-21T01:12:13;90347.17;;;-2.20;78.12
50696;BME280;36665;51.786;21.594;2022-11-21T01:20:38;90337.81;;;-2.22;78.04
50696;BME280;36665;51.786;21.594;2022-11-21T01:29:00;90301.52;;;-2.33;77.94
50696;BME280;36665;51.786;21.594;2022-11-21T01:37:21;90235.73;;;-2.51;77.83
50696;BME280;36665;51.786;21.594;2022-11-21T01:54:21;90128.27;;;-2.81;77.85
50696;BME280;36665;51.786;21.594;2022-11-21T02:02:50;90057.46;;;-3.00;77.78
50696;BME280;36665;51.786;21.594;2022-11-21T02:19:57;89899.83;;;-3.45;77.46
50696;BME280;36665;51.786;21.594;2022-11-21T02:28:21;89764.08;;;-3.83;77.39
50696;BME280;36665;51.786;21.594;2022-11-21T02:36:46;89660.37;;;-4.12;77.34
50696;BME280;36665;51.786;21.594;2022-11-21T02:45:29;89605.50;;;-4.27;77.22
50696;BME280;36665;51.786;21.594;2022-11-21T02:53:52;89574.66;;;-4.36;77.20
50696;BME280;36665;51.786;21.594;2022-11-21T03:02:13;89512.66;;;-4.53;77.26
50696;BME280;36665;51.786;21.594;2022-11-21T03:10:35;89420.48;;;-4.81;77.00
50696;BME280;36665;51.786;21.594;2022-11-21T03:18:56;89360.08;;;-4.97;77.06
50696;BME280;36665;51.786;21.594;2022-11-21T03:27:18;89328.98;;;-5.05;76.86
50696;BME280;36665;51.786;21.594;2022-11-21T03:35:39;89288.48;;;-5.17;76.93
50696;BME280;36665;51.786;21.594;2022-11-21T03:44:04;89221.29;;;-5.35;76.91
50696;BME280;36665;51.786;21.594;2022-11-21T03:52:26;89187.26;;;-5.45;76.69
50696;BME280;36665;51.786;21.594;2022-11-21T04:00:48;89164.06;;;-5.52;76.53
50696;BME280;36665;51.786;21.594;2022-11-21T04:09:09;89122.71;;;-5.64;76.56
50696;BME280;36665;51.786;21.594;2022-11-21T04:17:31;89067.06;;;-5.80;76.69
50696;BME280;36665;51.786;21.594;2022-11-21T04:25:52;89070.38;;;-5.80;76.69
50696;BME280;36665;51.786;21.594;2022-11-21T04:34:14;89089.37;;;-5.73;76.78
50696;BME280;36665;51.786;21.594;2022-11-21T04:42:41;89076.60;;;-5.77;76.67
50696;BME280;36665;51.786;21.594;2022-11-21T04:51:03;89017.91;;;-5.94;76.68
50696;BME280;36665;51.786;21.594;2022-11-21T04:59:24;88938.91;;;-6.16;76.38
50696;BME280;36665;51.786;21.594;2022-11-21T05:07:46;88859.48;;;-6.38;76.36
50696;BME280;36665;51.786;21.594;2022-11-21T05:16:08;88771.33;;;-6.63;76.40
50696;BME280;36665;51.786;21.594;2022-11-21T05:24:30;88680.71;;;-6.88;76.31
50696;BME280;36665;51.786;21.594;2022-11-21T05:32:52;88592.30;;;-7.14;76.14
50696;BME280;36665;51.786;21.594;2022-11-21T05:41:14;88592.88;;;-7.14;76.27
50696;BME280;36665;51.786;21.594;2022-11-21T05:49:36;88616.02;;;-7.07;76.00
50696;BME280;36665;51.786;21.594;2022-11-21T05:57:58;88622.94;;;-7.04;76.26
50696;BME280;36665;51.786;21.594;2022-11-21T06:06:21;88616.73;;;-7.07;76.26
50696;BME280;36665;51.786;21.594;2022-11-21T06:14:45;88581.27;;;-7.17;76.15
50696;BME280;36665;51.786;21.594;2022-11-21T06:23:07;88589.56;;;-7.13;76.16
50696;BME280;36665;51.786;21.594;2022-11-21T06:31:29;88643.18;;;-6.98;76.14
50696;BME280;36665;51.786;21.594;2022-11-21T06:39:51;88719.25;;;-6.76;76.22
50696;BME280;36665;51.786;21.594;2022-11-21T06:48:12;88763.31;;;-6.64;76.43
50696;BME280;36665;51.786;21.594;2022-11-21T06:56:34;88808.00;;;-6.51;76.39
50696;BME280;36665;51.786;21.594;2022-11-21T07:04:55;88853.02;;;-6.38;76.35
50696;BME280;36665;51.786;21.594;2022-11-21T07:13:17;88888.73;;;-6.28;76.66
50696;BME280;36665;51.786;21.594;2022-11-21T07:21:41;88916.63;;;-6.20;76.61
50696;BME280;36665;51.786;21.594;2022-11-21T07:30:03;88940.70;;;-6.13;76.69
50696;BME280;36665;51.786;21.594;2022-11-21T07:38:25;89017.52;;;-5.91;76.57
50696;BME280;36665;51.786;21.594;2022-11-21T07:46:46;89459.27;;;-4.66;76.94
50696;BME280;36665;51.786;21.594;2022-11-21T07:55:08;89965.76;;;-3.24;77.44
50696;BME280;36665;51.786;21.594;2022-11-21T08:03:31;90378.28;;;-2.08;77.95
50696;BME280;36665;51.786;21.594;2022-11-21T08:11:53;90639.13;;;-1.35;78.29
50696;BME280;36665;51.786;21.594;2022-11-21T08:20:15;90705.76;;;-1.18;78.31
50696;BME280;36665;51.786;21.594;2022-11-21T08:28:37;90674.02;;;-1.26;78.30
50696;BME280;36665;51.786;21.594;2022-11-21T08:36:58;90497.20;;;-1.76;78.13
50696;BME280;36665;51.786;21.594;2022-11-21T08:45:20;90387.17;;;-2.07;78.11
50696;BME280;36665;51.786;21.594;2022-11-21T08:53:41;90334.21;;;-2.22;77.93
50696;BME280;36665;51.786;21.594;2022-11-21T09:02:03;90352.59;;;-2.17;77.98
50696;BME280;36665;51.786;21.594;2022-11-21T09:10:25;90383.01;;;-2.09;77.87
50696;BME280;36665;51.786;21.594;2022-11-21T09:18:47;90399.96;;;-2.05;77.88
50696;BME280;36665;51.786;21.594;2022-11-21T09:27:12;90409.94;;;-2.02;77.96
50696;BME280;36665;51.786;21.594;2022-11-21T09:35:33;90386.10;;;-2.09;77.86
50696;BME280;36665;51.786;21.594;2022-11-21T09:52:38;90379.56;;;-2.10;77.97
50696;BME280;36665;51.786;21.594;2022-11-21T10:01:01;90424.83;;;-1.97;77.93
50696;BME280;36665;51.786;21.594;2022-11-21T10:27:01;90485.17;;;-1.80;78.12
50696;BME280;36665;51.786;21.594;2022-11-21T10:35:47;90476.42;;;-1.84;78.24
50696;BME280;36665;51.786;21.594;2022-11-21T10:44:26;90456.27;;;-1.89;78.27
50696;BME280;36665;51.786;21.594;2022-11-21T10:53:18;90482.77;;;-1.82;78.33
50696;BME280;36665;51.786;21.594;2022-11-21T11:02:09;90523.98;;;-1.71;78.37
50696;BME280;36665;51.786;21.594;2022-11-21T11:11:05;90561.75;;;-1.61;78.43
50696;BME280;36665;51.786;21.594;2022-11-21T11:19:29;90605.84;;;-1.48;78.16
50696;BME280;36665;51.786;21.594;2022-11-21T11:28:06;90680.96;;;-1.28;78.42
50696;BME280;36665;51.786;21.594;2022-11-21T11:36:36;90728.02;;;-1.14;78.42
50696;BME280;36665;51.786;21.594;2022-11-21T11:54:01;90709.44;;;-1.20;78.52
50696;BME280;36665;51.786;21.594;2022-11-21T12:02:38;90739.46;;;-1.12;78.53
50696;BME280;36665;51.786;21.594;2022-11-21T12:19:56;90786.79;;;-0.99;78.61
50696;BME280;36665;51.786;21.594;2022-11-21T12:45:39;90828.08;;;-0.88;78.42
50696;BME280;36665;51.786;21.594;2022-11-21T13:12:25;90793.81;;;-0.97;78.71
50696;BME280;36665;51.786;21.594;2022-11-21T13:20:51;90824.83;;;-0.89;78.63
50696;BME280;36665;51.786;21.594;2022-11-21T13:29:13;90819.58;;;-0.91;78.65
50696;BME280;36665;51.786;21.594;2022-11-21T13:37:58;90805.63;;;-0.95;78.66
50696;BME280;36665;51.786;21.594;2022-11-21T14:12:53;90675.73;;;-1.31;78.66
50696;BME280;36665;51.786;21.594;2022-11-21T14:21:28;90628.88;;;-1.44;78.64
50696;BME280;36665;51.786;21.594;2022-11-21T14:29:54;90600.30;;;-1.51;78.44
50696;BME280;36665;51.786;21.594;2022-11-21T14:38:19;90586.94;;;-1.56;78.27
50696;BME280;36665;51.786;21.594;2022-11-21T14:46:44;90548.34;;;-1.66;78.33
50696;BME280;36665;51.786;21.594;2022-11-21T14:55:21;90530.66;;;-1.71;78.46
50696;BME280;36665;51.786;21.594;2022-11-21T15:03:56;90526.17;;;-1.73;78.45
50696;BME280;36665;51.786;21.594;2022-11-21T15:12:29;90500.77;;;-1.80;78.38
50696;BME280;36665;51.786;21.594;2022-11-21T15:21:00;90473.27;;;-1.87;78.59
50696;BME280;36665;51.786;21.594;2022-11-21T15:29:30;90505.16;;;-1.79;78.61
50696;BME280;36665;51.786;21.594;2022-11-21T15:37:53;90568.75;;;-1.62;78.45
50696;BME280;36665;51.786;21.594;2022-11-21T15:46:23;90608.80;;;-1.50;78.38
50696;BME280;36665;51.786;21.594;2022-11-21T15:54:46;90654.39;;;-1.38;78.60
50696;BME280;36665;51.786;21.594;2022-11-21T16:03:08;90700.55;;;-1.25;78.62
50696;BME280;36665;51.786;21.594;2022-11-21T16:11:33;90729.85;;;-1.17;78.79
50696;BME280;36665;51.786;21.594;2022-11-21T16:19:57;90775.58;;;-1.04;78.63
50696;BME280;36665;51.786;21.594;2022-11-21T16:28:20;90811.66;;;-0.94;78.72
50696;BME280;36665;51.786;21.594;2022-11-21T16:36:42;90839.54;;;-0.86;78.76
50696;BME280;36665;51.786;21.594;2022-11-21T16:45:04;90874.19;;;-0.78;78.73
50696;BME280;36665;51.786;21.594;2022-11-21T16:53:29;90911.17;;;-0.67;78.93
50696;BME280;36665;51.786;21.594;2022-11-21T17:01:50;90921.96;;;-0.65;78.99
50696;BME280;36665;51.786;21.594;2022-11-21T17:10:14;90934.20;;;-0.60;78.98
50696;BME280;36665;51.786;21.594;2022-11-21T17:18:36;90961.33;;;-0.53;78.91
50696;BME280;36665;51.786;21.594;2022-11-21T17:26:59;90954.66;;;-0.55;78.97
50696;BME280;36665;51.786;21.594;2022-11-21T17:35:23;90971.83;;;-0.51;79.08
50696;BME280;36665;51.786;21.594;2022-11-21T17:43:44;90990.10;;;-0.46;79.13
50696;BME280;36665;51.786;21.594;2022-11-21T17:52:18;90969.85;;;-0.51;79.16
50696;BME280;36665;51.786;21.594;2022-11-21T18:00:40;90943.19;;;-0.60;79.16
50696;BME280;36665;51.786;21.594;2022-11-21T18:09:02;90914.77;;;-0.67;79.19
50696;BME280;36665;51.786;21.594;2022-11-21T18:17:25;90895.45;;;-0.73;79.20
50696;BME280;36665;51.786;21.594;2022-11-21T18:25:49;90894.84;;;-0.72;79.06
50696;BME280;36665;51.786;21.594;2022-11-21T18:34:11;90906.98;;;-0.69;79.10
50696;BME280;36665;51.786;21.594;2022-11-21T18:42:33;90905.78;;;-0.70;78.98
50696;BME280;36665;51.786;21.594;2022-11-21T18:50:55;90917.03;;;-0.67;79.27
50696;BME280;36665;51.786;21.594;2022-11-21T18:59:18;90946.53;;;-0.60;79.12
50696;BME280;36665;51.786;21.594;2022-11-21T19:07:39;90936.15;;;-0.62;79.10
50696;BME280;36665;51.786;21.594;2022-11-21T19:16:03;90936.05;;;-0.63;79.30
50696;BME280;36665;51.786;21.594;2022-11-21T19:24:28;90941.17;;;-0.60;79.36
50696;BME280;36665;51.786;21.594;2022-11-21T19:32:49;90918.70;;;-0.66;79.14
50696;BME280;36665;51.786;21.594;2022-11-21T19:41:14;90926.61;;;-0.64;79.36
50696;BME280;36665;51.786;21.594;2022-11-21T19:49:37;90949.95;;;-0.58;79.18
50696;BME280;36665;51.786;21.594;2022-11-21T19:57:59;90945.95;;;-0.60;79.06
50696;BME280;36665;51.786;21.594;2022-11-21T20:06:35;90951.55;;;-0.58;79.11
50696;BME280;36665;51.786;21.594;2022-11-21T20:14:57;90971.75;;;-0.53;79.26
50696;BME280;36665;51.786;21.594;2022-11-21T20:23:19;90971.55;;;-0.53;79.21
50696;BME280;36665;51.786;21.594;2022-11-21T20:31:40;90962.81;;;-0.56;79.22
50696;BME280;36665;51.786;21.594;2022-11-21T20:40:03;90979.03;;;-0.51;79.28
50696;BME280;36665;51.786;21.594;2022-11-21T20:48:25;90984.14;;;-0.50;79.30
50696;BME280;36665;51.786;21.594;2022-11-21T20:56:46;90968.17;;;-0.55;79.09
50696;BME280;36665;51.786;21.594;2022-11-21T21:05:08;90971.58;;;-0.54;79.35
50696;BME280;36665;51.786;21.594;2022-11-21T21:13:30;90980.83;;;-0.51;79.46
50696;BME280;36665;51.786;21.594;2022-11-21T21:21:52;90978.81;;;-0.52;79.48
50696;BME280;36665;51.786;21.594;2022-11-21T21:30:14;90981.41;;;-0.51;79.39
50696;BME280;36665;51.786;21.594;2022-11-21T21:38:36;90996.29;;;-0.47;79.49
50696;BME280;36665;51.786;21.594;2022-11-21T21:46:58;90983.46;;;-0.51;79.34
50696;BME280;36665;51.786;21.594;2022-11-21T21:55:19;90962.96;;;-0.56;79.34
50696;BME280;36665;51.786;21.594;2022-11-21T22:03:42;90961.71;;;-0.56;79.32
50696;BME280;36665;51.786;21.594;2022-11-21T22:12:03;90970.55;;;-0.54;79.22
50696;BME280;36665;51.786;21.594;2022-11-21T22:20:25;90956.29;;;-0.59;79.45
50696;BME280;36665;51.786;21.594;2022-11-21T22:28:50;90915.94;;;-0.69;79.29
50696;BME280;36665;51.786;21.594;2022-11-21T22:37:13;90913.71;;;-0.70;79.33
50696;BME280;36665;51.786;21.594;2022-11-21T22:45:35;90930.73;;;-0.65;79.35
50696;BME280;36665;51.786;21.594;2022-11-21T22:53:59;90936.18;;;-0.64;79.34
50696;BME280;36665;51.786;21.594;2022-11-21T23:02:24;90924.66;;;-0.68;79.44
50696;BME280;36665;51.786;21.594;2022-11-21T23:10:46;90933.20;;;-0.65;79.26
50696;BME280;36665;51.786;21.594;2022-11-21T23:19:09;90944.23;;;-0.63;79.10
50696;BME280;36665;51.786;21.594;2022-11-21T23:27:31;90934.58;;;-0.66;79.19
50696;BME280;36665;51.786;21.594;2022-11-21T23:35:55;90921.56;;;-0.69;79.27
50696;BME280;36665;51.786;21.594;2022-11-21T23:44:18;90935.36;;;-0.65;79.35
50696;BME280;36665;51.786;21.594;2022-11-21T23:52:40;90950.02;;;-0.61;79.35
